createdAt,value
2019-01-13T00:00:35.421Z,21.80
2019-01-13T00:01:35.388Z,24.40
2019-01-13T00:02:35.415Z,23.60
2019-01-13T00:03:35.359Z,21.80
2019-01-13T00:04:35.377Z,23.40
2019-01-13T00:05:35.339Z,26.80
2019-01-13T00:06:35.327Z,24.80
2019-01-13T00:07:35.336Z,23.40
2019-01-13T00:08:35.331Z,25.50
2019-01-13T00:09:35.300Z,20.90
2019-01-13T00:10:35.289Z,24.30
2019-01-13T00:11:35.285Z,22.30
2019-01-13T00:12:35.669Z,26.20
2019-01-13T00:13:35.271Z,26.20
2019-01-13T00:14:35.271Z,24.20
2019-01-13T00:15:35.234Z,24.80
2019-01-13T00:16:35.228Z,24.90
2019-01-13T00:17:35.210Z,27.20
2019-01-13T00:18:35.246Z,26.10
2019-01-13T00:19:35.194Z,23.80
2019-01-13T00:20:35.183Z,24.70
2019-01-13T00:21:35.175Z,27.40
2019-01-13T00:22:35.166Z,23.40
2019-01-13T00:23:35.169Z,23.60
2019-01-13T00:24:35.140Z,24.10
2019-01-13T00:25:35.147Z,24.90
2019-01-13T00:26:35.118Z,25.10
2019-01-13T00:27:35.105Z,25.80
2019-01-13T00:28:35.097Z,25.10
2019-01-13T00:29:35.112Z,23.50
2019-01-13T00:30:35.076Z,26.70
2019-01-13T00:31:35.061Z,21.40
2019-01-13T00:32:35.047Z,26.90
2019-01-13T00:33:35.041Z,25.60
2019-01-13T00:34:35.052Z,27.90
2019-01-13T00:35:35.023Z,25.70
2019-01-13T00:36:35.008Z,24.30
2019-01-13T00:37:35.028Z,24.40
2019-01-13T00:38:34.995Z,24.80
2019-01-13T00:39:34.996Z,22.60
2019-01-13T00:40:34.992Z,24.80
2019-01-13T00:41:34.956Z,23.50
2019-01-13T00:42:34.945Z,27.20
2019-01-13T00:43:34.931Z,22.40
2019-01-13T00:44:34.943Z,22.90
2019-01-13T00:45:34.915Z,25.30
2019-01-13T00:46:34.910Z,24.80
2019-01-13T00:47:34.894Z,28.00
2019-01-13T00:48:34.883Z,24.50
2019-01-13T00:49:34.893Z,25.10
2019-01-13T00:50:34.861Z,25.40
2019-01-13T00:51:34.846Z,26.60
2019-01-13T00:52:34.835Z,27.50
2019-01-13T00:53:34.830Z,27.00
2019-01-13T00:54:34.816Z,22.30
2019-01-13T00:55:34.822Z,25.90
2019-01-13T00:56:34.802Z,23.10
2019-01-13T00:57:34.780Z,20.80
2019-01-13T00:58:34.794Z,25.20
2019-01-13T00:59:34.764Z,26.10
2019-01-13T01:00:34.773Z,24.50
2019-01-13T01:01:34.745Z,24.60
2019-01-13T01:02:34.732Z,22.50
2019-01-13T01:03:34.724Z,24.50
2019-01-13T01:04:34.746Z,22.70
2019-01-13T01:05:34.718Z,24.00
2019-01-13T01:06:34.688Z,24.30
2019-01-13T01:07:34.682Z,21.60
2019-01-13T01:08:34.672Z,26.40
2019-01-13T01:09:34.688Z,24.60
2019-01-13T01:10:34.663Z,25.30
2019-01-13T01:11:34.652Z,22.20
2019-01-13T01:12:34.663Z,22.20
2019-01-13T01:13:34.617Z,25.40
2019-01-13T01:14:34.602Z,23.30
2019-01-13T01:15:34.613Z,26.70
2019-01-13T01:16:34.586Z,22.80
2019-01-13T01:17:34.599Z,22.00
2019-01-13T01:18:34.558Z,24.60
2019-01-13T01:19:34.590Z,21.60
2019-01-13T01:20:34.585Z,23.30
2019-01-13T01:21:34.567Z,20.00
2019-01-13T01:22:34.526Z,19.40
2019-01-13T01:23:34.523Z,21.80
2019-01-13T01:24:34.536Z,21.30
2019-01-13T01:25:34.480Z,22.50
2019-01-13T01:26:34.500Z,22.40
2019-01-13T01:27:34.467Z,22.80
2019-01-13T01:28:34.464Z,21.40
2019-01-13T01:29:34.442Z,21.00
2019-01-13T01:30:34.439Z,21.10
2019-01-13T01:31:34.478Z,22.40
2019-01-13T01:32:34.412Z,20.40
2019-01-13T01:33:34.397Z,21.70
2019-01-13T01:34:34.404Z,20.20
2019-01-13T01:35:34.373Z,21.50
2019-01-13T01:36:34.368Z,20.30
2019-01-13T01:37:34.377Z,21.90
2019-01-13T01:38:34.347Z,22.80
2019-01-13T01:39:34.337Z,20.80
2019-01-13T01:40:34.349Z,22.60
2019-01-13T01:41:34.334Z,22.00
2019-01-13T01:42:34.319Z,19.40
2019-01-13T01:43:34.289Z,20.30
2019-01-13T01:44:34.298Z,22.10
2019-01-13T01:45:34.267Z,19.20
2019-01-13T01:46:34.266Z,22.50
2019-01-13T01:47:34.281Z,21.00
2019-01-13T01:48:34.236Z,21.00
2019-01-13T01:49:34.232Z,22.00
2019-01-13T01:50:34.241Z,22.50
2019-01-13T01:51:34.211Z,21.40
2019-01-13T01:52:34.200Z,22.30
2019-01-13T01:53:34.203Z,20.50
2019-01-13T01:54:34.173Z,20.90
2019-01-13T01:55:34.169Z,20.60
2019-01-13T01:56:34.191Z,21.80
2019-01-13T01:57:34.155Z,23.40
2019-01-13T01:58:34.153Z,18.80
2019-01-13T01:59:34.119Z,19.40
2019-01-13T02:00:40.352Z,20.10
2019-01-13T02:01:35.107Z,21.40
2019-01-13T02:02:34.118Z,18.90
2019-01-13T02:03:34.137Z,20.70
2019-01-13T02:04:34.120Z,21.80
2019-01-13T02:05:34.063Z,21.10
2019-01-13T02:06:34.059Z,23.60
2019-01-13T02:07:34.042Z,19.80
2019-01-13T02:08:34.054Z,20.60
2019-01-13T02:09:34.024Z,19.40
2019-01-13T02:10:33.999Z,21.60
2019-01-13T02:11:34.001Z,20.00
2019-01-13T02:12:34.005Z,19.40
2019-01-13T02:13:33.996Z,20.60
2019-01-13T02:14:33.958Z,20.60
2019-01-13T02:15:33.950Z,21.80
2019-01-13T02:16:33.948Z,19.90
2019-01-13T02:17:33.939Z,22.20
2019-01-13T02:18:33.917Z,26.90
2019-01-13T02:19:33.929Z,20.80
2019-01-13T02:20:33.937Z,21.50
2019-01-13T02:21:33.884Z,24.20
2019-01-13T02:22:33.879Z,22.60
2019-01-13T02:23:33.861Z,21.60
2019-01-13T02:24:33.989Z,22.20
2019-01-13T02:25:33.840Z,19.80
2019-01-13T02:26:33.830Z,21.00
2019-01-13T02:27:33.829Z,21.00
2019-01-13T02:28:33.810Z,16.60
2019-01-13T02:29:33.818Z,21.20
2019-01-13T02:30:33.793Z,20.10
2019-01-13T02:31:33.781Z,19.80
2019-01-13T02:32:33.777Z,21.70
2019-01-13T02:33:33.768Z,22.10
2019-01-13T02:34:33.773Z,21.30
2019-01-13T02:35:33.760Z,20.30
2019-01-13T02:36:33.726Z,23.10
2019-01-13T02:37:33.717Z,17.70
2019-01-13T02:38:33.704Z,21.70
2019-01-13T02:39:33.692Z,21.60
2019-01-13T02:40:33.708Z,21.90
2019-01-13T02:41:33.672Z,20.90
2019-01-13T02:42:33.675Z,20.50
2019-01-13T02:43:33.655Z,20.50
2019-01-13T02:44:33.639Z,23.70
2019-01-13T02:45:33.681Z,23.00
2019-01-13T02:46:33.635Z,23.80
2019-01-13T02:47:33.607Z,21.70
2019-01-13T02:48:33.602Z,24.30
2019-01-13T02:49:33.603Z,27.00
2019-01-13T02:50:33.601Z,22.00
2019-01-13T02:51:33.569Z,23.40
2019-01-13T02:52:33.555Z,24.10
2019-01-13T02:53:33.542Z,21.60
2019-01-13T02:54:33.552Z,23.70
2019-01-13T02:55:33.572Z,22.10
2019-01-13T02:56:33.529Z,26.90
2019-01-13T02:57:33.517Z,23.90
2019-01-13T02:58:33.488Z,21.90
2019-01-13T02:59:33.474Z,22.80
2019-01-13T03:00:33.516Z,22.00
2019-01-13T03:01:33.476Z,22.70
2019-01-13T03:02:33.449Z,25.90
2019-01-13T03:03:33.438Z,21.20
2019-01-13T03:04:33.428Z,21.50
2019-01-13T03:05:33.417Z,23.90
2019-01-13T03:06:33.428Z,23.30
2019-01-13T03:07:33.394Z,23.00
2019-01-13T03:08:33.381Z,22.50
2019-01-13T03:09:33.371Z,24.90
2019-01-13T03:10:33.359Z,22.20
2019-01-13T03:11:33.373Z,23.50
2019-01-13T03:12:33.343Z,22.80
2019-01-13T03:13:33.332Z,24.70
2019-01-13T03:14:33.318Z,22.30
2019-01-13T03:15:33.308Z,22.10
2019-01-13T03:16:33.319Z,20.10
2019-01-13T03:17:33.304Z,22.30
2019-01-13T03:18:33.288Z,21.60
2019-01-13T03:19:33.267Z,21.00
2019-01-13T03:20:33.275Z,20.50
2019-01-13T03:21:33.243Z,20.00
2019-01-13T03:22:33.248Z,19.70
2019-01-13T03:23:33.224Z,20.50
2019-01-13T03:24:33.222Z,18.90
2019-01-13T03:25:33.199Z,18.40
2019-01-13T03:26:33.213Z,21.10
2019-01-13T03:27:33.181Z,17.10
2019-01-13T03:28:33.194Z,16.20
2019-01-13T03:29:33.155Z,19.60
2019-01-13T03:30:33.169Z,17.50
2019-01-13T03:31:33.182Z,17.30
2019-01-13T03:32:33.128Z,18.00
2019-01-13T03:33:33.128Z,17.30
2019-01-13T03:34:33.099Z,16.40
2019-01-13T03:35:33.090Z,17.30
2019-01-13T03:36:33.128Z,15.60
2019-01-13T03:37:33.097Z,16.60
2019-01-13T03:38:33.068Z,17.60
2019-01-13T03:39:33.051Z,15.80
2019-01-13T03:40:33.060Z,15.90
2019-01-13T03:41:33.036Z,16.60
2019-01-13T03:42:33.049Z,18.10
2019-01-13T03:43:33.005Z,17.40
2019-01-13T03:44:33.004Z,17.80
2019-01-13T03:45:32.988Z,18.40
2019-01-13T03:46:32.975Z,17.80
2019-01-13T03:47:32.985Z,15.90
2019-01-13T03:48:32.949Z,17.20
2019-01-13T03:49:32.966Z,17.60
2019-01-13T03:50:32.931Z,15.50
2019-01-13T03:51:32.917Z,17.40
2019-01-13T03:52:32.993Z,17.30
2019-01-13T03:53:32.987Z,17.30
2019-01-13T03:54:32.887Z,15.90
2019-01-13T03:55:32.933Z,18.40
2019-01-13T03:56:32.866Z,17.20
2019-01-13T03:57:32.876Z,18.00
2019-01-13T03:58:32.842Z,16.40
2019-01-13T03:59:32.841Z,16.60
2019-01-13T04:00:32.827Z,16.90
2019-01-13T04:01:32.808Z,18.30
2019-01-13T04:02:32.807Z,17.20
2019-01-13T04:03:32.809Z,16.10
2019-01-13T04:04:32.783Z,19.60
2019-01-13T04:05:32.768Z,18.90
2019-01-13T04:06:32.753Z,16.70
2019-01-13T04:07:32.755Z,18.70
2019-01-13T04:08:32.752Z,16.90
2019-01-13T04:09:32.736Z,16.10
2019-01-13T04:10:32.743Z,17.20
2019-01-13T04:11:32.703Z,16.90
2019-01-13T04:12:32.689Z,18.80
2019-01-13T04:13:32.700Z,17.10
2019-01-13T04:14:32.684Z,16.50
2019-01-13T04:15:32.660Z,16.80
2019-01-13T04:16:32.653Z,15.80
2019-01-13T04:17:32.636Z,17.10
2019-01-13T04:18:32.643Z,17.90
2019-01-13T04:19:32.616Z,15.90
2019-01-13T04:20:32.618Z,17.20
2019-01-13T04:21:32.592Z,16.50
2019-01-13T04:22:32.584Z,17.20
2019-01-13T04:23:32.587Z,16.00
2019-01-13T04:24:32.558Z,16.70
2019-01-13T04:25:32.551Z,16.10
2019-01-13T04:26:32.541Z,17.10
2019-01-13T04:27:32.542Z,16.20
2019-01-13T04:28:32.541Z,16.90
2019-01-13T04:29:32.507Z,15.40
2019-01-13T04:30:32.498Z,18.10
2019-01-13T04:31:32.493Z,18.10
2019-01-13T04:32:32.473Z,19.30
2019-01-13T04:33:32.463Z,16.00
2019-01-13T04:34:32.496Z,15.50
2019-01-13T04:35:32.441Z,14.70
2019-01-13T04:36:32.435Z,15.90
2019-01-13T04:37:32.423Z,16.00
2019-01-13T04:38:32.418Z,16.10
2019-01-13T04:39:32.426Z,13.90
2019-01-13T04:40:32.403Z,14.80
2019-01-13T04:41:32.379Z,15.40
2019-01-13T04:42:32.367Z,12.70
2019-01-13T04:43:32.357Z,13.80
2019-01-13T04:44:32.364Z,14.90
2019-01-13T04:45:32.335Z,13.60
2019-01-13T04:46:32.344Z,12.00
2019-01-13T04:47:32.320Z,12.30
2019-01-13T04:48:32.301Z,14.10
2019-01-13T04:49:32.314Z,12.20
2019-01-13T04:50:32.289Z,13.10
2019-01-13T04:51:32.270Z,13.20
2019-01-13T04:52:32.261Z,14.40
2019-01-13T04:53:32.266Z,12.10
2019-01-13T04:54:32.262Z,13.90
2019-01-13T04:55:32.225Z,13.50
2019-01-13T04:56:32.217Z,12.90
2019-01-13T04:57:32.205Z,12.90
2019-01-13T04:58:32.197Z,13.50
2019-01-13T04:59:32.194Z,15.10
2019-01-13T05:00:32.192Z,14.70
2019-01-13T05:01:34.720Z,11.80
2019-01-13T05:02:32.150Z,14.00
2019-01-13T05:03:32.141Z,12.50
2019-01-13T05:04:32.131Z,12.70
2019-01-13T05:05:32.145Z,13.40
2019-01-13T05:06:32.109Z,11.20
2019-01-13T05:07:32.107Z,12.70
2019-01-13T05:08:32.087Z,11.80
2019-01-13T05:09:32.076Z,14.00
2019-01-13T05:10:32.082Z,12.70
2019-01-13T05:11:32.068Z,12.30
2019-01-13T05:12:32.049Z,13.60
2019-01-13T05:13:32.038Z,13.40
2019-01-13T05:14:32.026Z,13.80
2019-01-13T05:15:32.035Z,14.20
2019-01-13T05:16:32.012Z,13.40
2019-01-13T05:17:33.736Z,11.90
2019-01-13T05:18:31.985Z,12.20
2019-01-13T05:19:31.987Z,11.50
2019-01-13T05:20:31.978Z,11.80
2019-01-13T05:21:31.961Z,13.30
2019-01-13T05:22:31.937Z,13.50
2019-01-13T05:23:31.934Z,11.60
2019-01-13T05:24:31.928Z,13.80
2019-01-13T05:25:31.934Z,12.00
2019-01-13T05:26:31.893Z,11.80
2019-01-13T05:27:31.883Z,12.50
2019-01-13T05:28:31.873Z,12.20
2019-01-13T05:29:31.882Z,12.00
2019-01-13T05:30:31.856Z,10.90
2019-01-13T05:31:31.868Z,10.50
2019-01-13T05:32:31.828Z,10.90
2019-01-13T05:33:31.818Z,10.70
2019-01-13T05:34:31.812Z,12.20
2019-01-13T05:35:31.808Z,10.40
2019-01-13T05:36:31.803Z,10.20
2019-01-13T05:37:31.774Z,10.40
2019-01-13T05:38:31.765Z,11.70
2019-01-13T05:39:31.755Z,10.70
2019-01-13T05:40:31.742Z,10.80
2019-01-13T05:41:31.770Z,11.10
2019-01-13T05:42:31.743Z,10.00
2019-01-13T05:43:31.716Z,10.30
2019-01-13T05:44:31.699Z,9.20
2019-01-13T05:45:31.696Z,10.50
2019-01-13T05:46:31.681Z,11.00
2019-01-13T05:47:31.687Z,9.70
2019-01-13T05:48:31.678Z,9.60
2019-01-13T05:49:31.648Z,9.90
2019-01-13T05:50:31.636Z,10.40
2019-01-13T05:51:31.627Z,10.70
2019-01-13T05:52:31.635Z,10.40
2019-01-13T05:53:31.607Z,11.90
2019-01-13T05:54:31.599Z,11.50
2019-01-13T05:55:31.581Z,10.20
2019-01-13T05:56:31.574Z,10.20
2019-01-13T05:57:31.582Z,10.80
2019-01-13T05:58:31.552Z,10.30
2019-01-13T05:59:31.543Z,11.50
2019-01-13T06:00:31.544Z,10.30
2019-01-13T06:01:31.518Z,11.60
2019-01-13T06:02:31.533Z,10.50
2019-01-13T06:03:31.498Z,10.70
2019-01-13T06:04:31.485Z,12.20
2019-01-13T06:05:31.476Z,10.60
2019-01-13T06:06:31.501Z,11.50
2019-01-13T06:07:31.455Z,12.00
2019-01-13T06:08:31.464Z,12.00
2019-01-13T06:09:31.432Z,10.50
2019-01-13T06:10:31.422Z,11.50
2019-01-13T06:11:31.408Z,12.60
2019-01-13T06:12:31.408Z,10.40
2019-01-13T06:13:31.407Z,12.70
2019-01-13T06:14:31.377Z,11.90
2019-01-13T06:15:31.371Z,10.50
2019-01-13T06:16:31.357Z,10.20
2019-01-13T06:17:31.346Z,12.60
2019-01-13T06:18:31.358Z,11.60
2019-01-13T06:19:31.327Z,11.70
2019-01-13T06:20:31.318Z,12.80
2019-01-13T06:21:31.301Z,11.20
2019-01-13T06:22:31.302Z,12.70
2019-01-13T06:23:31.307Z,12.80
2019-01-13T06:24:31.283Z,11.80
2019-01-13T06:25:31.258Z,11.80
2019-01-13T06:26:31.250Z,12.50
2019-01-13T06:27:31.241Z,12.60
2019-01-13T06:28:31.243Z,12.60
2019-01-13T06:29:31.219Z,11.80
2019-01-13T06:30:31.221Z,10.70
2019-01-13T06:31:31.197Z,10.90
2019-01-13T06:32:31.189Z,13.20
2019-01-13T06:33:31.198Z,11.30
2019-01-13T06:34:31.166Z,13.20
2019-01-13T06:35:31.152Z,12.50
2019-01-13T06:36:31.153Z,11.80
2019-01-13T06:37:31.131Z,12.50
2019-01-13T06:38:31.121Z,11.50
2019-01-13T06:39:31.128Z,11.50
2019-01-13T06:40:31.099Z,11.20
2019-01-13T06:41:31.088Z,11.90
2019-01-13T06:42:31.085Z,12.10
2019-01-13T06:43:31.067Z,11.80
2019-01-13T06:44:31.076Z,13.40
2019-01-13T06:45:31.048Z,12.90
2019-01-13T06:46:31.040Z,11.10
2019-01-13T06:47:31.023Z,12.20
2019-01-13T06:48:31.016Z,11.40
2019-01-13T06:49:31.039Z,12.80
2019-01-13T06:50:31.004Z,10.60
2019-01-13T06:51:30.985Z,11.90
2019-01-13T06:52:30.973Z,12.60
2019-01-13T06:53:30.961Z,11.40
2019-01-13T06:54:30.975Z,10.40
2019-01-13T06:55:30.951Z,10.40
2019-01-13T06:56:30.935Z,11.50
2019-01-13T06:57:30.917Z,11.80
2019-01-13T06:58:30.912Z,11.40
2019-01-13T06:59:30.897Z,9.90
2019-01-13T07:00:31.957Z,11.20
2019-01-13T07:01:30.893Z,11.20
2019-01-13T07:02:30.867Z,10.90
2019-01-13T07:03:30.853Z,11.00
2019-01-13T07:04:30.845Z,9.20
2019-01-13T07:05:30.850Z,10.80
2019-01-13T07:06:30.821Z,10.60
2019-01-13T07:07:30.827Z,9.50
2019-01-13T07:08:30.803Z,10.40
2019-01-13T07:09:30.792Z,11.00
2019-01-13T07:10:30.801Z,9.70
2019-01-13T07:11:30.770Z,9.40
2019-01-13T07:12:30.763Z,10.20
2019-01-13T07:13:30.760Z,10.30
2019-01-13T07:14:30.739Z,11.20
2019-01-13T07:15:30.747Z,11.80
2019-01-13T07:16:30.713Z,9.50
2019-01-13T07:17:30.707Z,10.90
2019-01-13T07:18:30.695Z,10.80
2019-01-13T07:19:30.697Z,10.70
2019-01-13T07:20:30.694Z,11.40
2019-01-13T07:21:30.661Z,10.20
2019-01-13T07:22:30.650Z,10.40
2019-01-13T07:23:30.645Z,10.30
2019-01-13T07:24:30.633Z,8.80
2019-01-13T07:25:30.626Z,10.10
2019-01-13T07:26:30.632Z,9.90
2019-01-13T07:27:30.600Z,9.80
2019-01-13T07:28:30.586Z,8.90
2019-01-13T07:29:30.575Z,8.30
2019-01-13T07:30:30.566Z,8.60
2019-01-13T07:31:30.590Z,7.40
2019-01-13T07:32:30.548Z,7.40
2019-01-13T07:33:30.532Z,7.10
2019-01-13T07:34:30.522Z,7.80
2019-01-13T07:35:30.515Z,8.00
2019-01-13T07:36:30.528Z,6.50
2019-01-13T07:37:30.492Z,8.10
2019-01-13T07:38:30.491Z,9.70
2019-01-13T07:39:30.466Z,6.00
2019-01-13T07:40:30.455Z,6.90
2019-01-13T07:41:30.445Z,7.10
2019-01-13T07:42:30.455Z,6.90
2019-01-13T07:43:30.428Z,6.60
2019-01-13T07:44:30.419Z,6.30
2019-01-13T07:45:30.414Z,6.70
2019-01-13T07:46:30.392Z,6.10
2019-01-13T07:47:30.402Z,7.10
2019-01-13T07:48:30.370Z,7.40
2019-01-13T07:49:30.359Z,8.50
2019-01-13T07:50:30.349Z,7.90
2019-01-13T07:51:30.339Z,6.60
2019-01-13T07:52:30.359Z,7.00
2019-01-13T07:53:30.315Z,6.50
2019-01-13T07:54:30.310Z,5.90
2019-01-13T07:55:30.297Z,7.20
2019-01-13T07:56:30.282Z,6.10
2019-01-13T07:57:30.273Z,6.00
2019-01-13T07:58:30.281Z,7.30
2019-01-13T07:59:30.250Z,6.00
2019-01-13T08:00:30.261Z,5.20
2019-01-13T08:01:30.240Z,5.70
2019-01-13T08:02:30.223Z,6.00
2019-01-13T08:03:30.226Z,5.40
2019-01-13T08:04:30.204Z,8.10
2019-01-13T08:05:30.191Z,5.60
2019-01-13T08:06:30.179Z,5.50
2019-01-13T08:07:30.181Z,4.70
2019-01-13T08:08:30.245Z,5.50
2019-01-13T08:09:30.145Z,5.20
2019-01-13T08:10:30.134Z,6.40
2019-01-13T08:11:30.138Z,6.10
2019-01-13T08:12:30.279Z,5.30
2019-01-13T08:13:30.101Z,5.30
2019-01-13T08:14:30.109Z,5.90
2019-01-13T08:15:30.093Z,6.00
2019-01-13T08:16:30.076Z,6.80
2019-01-13T08:17:30.061Z,5.60
2019-01-13T08:18:30.057Z,7.50
2019-01-13T08:19:30.073Z,8.40
2019-01-13T08:20:30.053Z,5.90
2019-01-13T08:21:30.023Z,6.90
2019-01-13T08:22:30.013Z,6.10
2019-01-13T08:23:30.001Z,7.70
2019-01-13T08:24:30.007Z,4.90
2019-01-13T08:25:29.977Z,6.10
2019-01-13T08:26:29.995Z,5.90
2019-01-13T08:27:29.953Z,5.90
2019-01-13T08:28:29.952Z,5.20
2019-01-13T08:29:29.951Z,6.40
2019-01-13T08:30:29.924Z,6.10
2019-01-13T08:31:29.921Z,6.40
2019-01-13T08:32:29.900Z,5.00
2019-01-13T08:33:29.891Z,6.20
2019-01-13T08:34:29.975Z,7.30
2019-01-13T08:35:29.871Z,6.50
2019-01-13T08:36:29.864Z,5.60
2019-01-13T08:37:29.847Z,6.00
2019-01-13T08:38:29.836Z,5.90
2019-01-13T08:39:29.935Z,6.50
2019-01-13T08:40:29.836Z,6.60
2019-01-13T08:41:29.819Z,5.80
2019-01-13T08:42:29.796Z,6.20
2019-01-13T08:43:29.804Z,5.70
2019-01-13T08:44:29.769Z,6.30
2019-01-13T08:45:29.782Z,5.00
2019-01-13T08:46:29.760Z,6.50
2019-01-13T08:47:29.742Z,6.30
2019-01-13T08:48:29.726Z,7.40
2019-01-13T08:49:29.717Z,6.70
2019-01-13T08:50:29.737Z,6.60
2019-01-13T08:51:29.751Z,6.00
2019-01-13T08:52:29.690Z,6.60
2019-01-13T08:53:29.680Z,8.30
2019-01-13T08:54:29.690Z,8.40
2019-01-13T08:55:29.699Z,6.90
2019-01-13T08:56:29.676Z,7.80
2019-01-13T08:57:29.645Z,7.30
2019-01-13T08:58:29.649Z,7.60
2019-01-13T08:59:29.651Z,7.30
2019-01-13T09:00:29.665Z,7.30
2019-01-13T09:01:29.592Z,7.30
2019-01-13T09:02:32.280Z,9.40
2019-01-13T09:03:29.587Z,8.60
2019-01-13T09:04:29.581Z,8.30
2019-01-13T09:05:29.558Z,7.30
2019-01-13T09:06:29.576Z,8.50
2019-01-13T09:07:29.536Z,8.30
2019-01-13T09:08:29.518Z,8.60
2019-01-13T09:09:30.217Z,9.90
2019-01-13T09:10:29.501Z,10.00
2019-01-13T09:11:29.533Z,9.80
2019-01-13T09:12:29.559Z,10.40
2019-01-13T09:13:29.464Z,8.70
2019-01-13T09:14:29.456Z,11.20
2019-01-13T09:15:29.446Z,9.00
2019-01-13T09:16:29.466Z,9.00
2019-01-13T09:17:29.417Z,10.20
2019-01-13T09:18:29.415Z,10.60
2019-01-13T09:19:29.407Z,10.60
2019-01-13T09:20:29.400Z,9.50
2019-01-13T09:21:29.437Z,11.30
2019-01-13T09:22:29.375Z,12.00
2019-01-13T09:23:29.352Z,11.10
2019-01-13T09:24:29.344Z,11.10
2019-01-13T09:25:29.337Z,12.40
2019-01-13T09:26:29.326Z,11.60
2019-01-13T09:27:29.328Z,11.30
2019-01-13T09:28:29.298Z,11.60
2019-01-13T09:29:29.292Z,12.00
2019-01-13T09:30:29.280Z,11.70
2019-01-13T09:31:29.273Z,11.60
2019-01-13T09:32:29.271Z,14.10
2019-01-13T09:33:29.247Z,12.90
2019-01-13T09:34:29.273Z,11.80
2019-01-13T09:35:29.226Z,11.90
2019-01-13T09:36:29.220Z,11.00
2019-01-13T09:37:29.224Z,11.90
2019-01-13T09:38:29.193Z,10.80
2019-01-13T09:39:29.196Z,13.00
2019-01-13T09:40:29.171Z,11.50
2019-01-13T09:41:29.157Z,11.40
2019-01-13T09:42:29.152Z,13.20
2019-01-13T09:43:29.167Z,14.90
2019-01-13T09:44:29.167Z,11.90
2019-01-13T09:45:29.115Z,12.60
2019-01-13T09:46:29.110Z,13.60
2019-01-13T09:47:29.096Z,12.60
2019-01-13T09:48:29.109Z,13.60
2019-01-13T09:49:29.072Z,14.10
2019-01-13T09:50:29.066Z,12.80
2019-01-13T09:51:29.052Z,12.50
2019-01-13T09:52:29.039Z,13.70
2019-01-13T09:53:29.048Z,12.80
2019-01-13T09:54:29.017Z,15.80
2019-01-13T09:55:29.009Z,14.80
2019-01-13T09:56:28.999Z,14.40
2019-01-13T09:57:28.993Z,15.00
2019-01-13T09:58:28.995Z,14.10
2019-01-13T09:59:28.965Z,14.20
2019-01-13T10:00:28.981Z,18.40
2019-01-13T10:01:28.946Z,16.00
2019-01-13T10:02:28.939Z,16.10
2019-01-13T10:03:28.950Z,15.20
2019-01-13T10:04:28.911Z,15.30
2019-01-13T10:05:28.903Z,15.20
2019-01-13T10:06:28.929Z,17.00
2019-01-13T10:07:28.922Z,15.30
2019-01-13T10:08:28.914Z,19.20
2019-01-13T10:09:28.882Z,19.40
2019-01-13T10:10:28.852Z,18.50
2019-01-13T10:11:28.838Z,16.90
2019-01-13T10:12:28.830Z,17.10
2019-01-13T10:13:28.855Z,20.30
2019-01-13T10:14:28.850Z,18.60
2019-01-13T10:15:28.798Z,19.00
2019-01-13T10:16:28.841Z,20.10
2019-01-13T10:17:28.775Z,18.40
2019-01-13T10:18:28.770Z,22.50
2019-01-13T10:19:28.752Z,21.30
2019-01-13T10:20:28.761Z,22.00
2019-01-13T10:21:28.798Z,20.30
2019-01-13T10:22:28.725Z,22.30
2019-01-13T10:23:28.715Z,21.90
2019-01-13T10:24:28.702Z,25.70
2019-01-13T10:25:28.742Z,24.60
2019-01-13T10:26:28.691Z,20.90
2019-01-13T10:27:28.670Z,24.10
2019-01-13T10:28:28.657Z,22.30
2019-01-13T10:29:28.646Z,24.70
2019-01-13T10:30:28.655Z,24.80
2019-01-13T10:31:28.625Z,23.30
2019-01-13T10:32:28.622Z,24.80
2019-01-13T10:33:28.607Z,28.30
2019-01-13T10:34:28.591Z,28.30
2019-01-13T10:35:28.600Z,26.20
2019-01-13T10:36:28.570Z,27.40
2019-01-13T10:37:28.565Z,27.40
2019-01-13T10:38:28.550Z,26.30
2019-01-13T10:39:28.536Z,28.50
2019-01-13T10:40:28.711Z,27.50
2019-01-13T10:41:28.519Z,27.20
2019-01-13T10:42:28.505Z,27.80
2019-01-13T10:43:28.506Z,27.10
2019-01-13T10:44:28.484Z,25.10
2019-01-13T10:45:28.474Z,29.00
2019-01-13T10:46:28.485Z,25.90
2019-01-13T10:47:28.451Z,27.70
2019-01-13T10:48:28.444Z,27.50
2019-01-13T10:49:28.428Z,27.70
2019-01-13T10:50:28.418Z,26.20
2019-01-13T10:51:28.442Z,27.70
2019-01-13T10:52:28.394Z,28.40
2019-01-13T10:53:28.388Z,26.10
2019-01-13T10:54:28.375Z,29.40
2019-01-13T10:55:28.371Z,34.10
2019-01-13T10:56:28.369Z,31.90
2019-01-13T10:57:28.361Z,27.90
2019-01-13T10:58:28.352Z,26.90
2019-01-13T10:59:28.322Z,27.60
2019-01-13T11:00:28.307Z,27.90
2019-01-13T11:01:28.320Z,26.90
2019-01-13T11:02:28.324Z,26.40
2019-01-13T11:03:28.282Z,25.70
2019-01-13T11:04:28.268Z,24.50
2019-01-13T11:05:28.257Z,26.80
2019-01-13T11:06:28.245Z,25.90
2019-01-13T11:07:28.295Z,24.30
2019-01-13T11:08:28.226Z,24.60
2019-01-13T11:09:28.211Z,24.50
2019-01-13T11:10:28.198Z,28.20
2019-01-13T11:11:28.188Z,24.80
2019-01-13T11:12:28.226Z,25.50
2019-01-13T11:13:28.170Z,29.10
2019-01-13T11:14:28.158Z,28.30
2019-01-13T11:15:28.162Z,28.70
2019-01-13T11:16:28.136Z,26.90
2019-01-13T11:17:28.208Z,29.30
2019-01-13T11:18:28.136Z,23.90
2019-01-13T11:19:28.108Z,27.40
2019-01-13T11:20:28.111Z,27.70
2019-01-13T11:21:28.081Z,25.40
2019-01-13T11:22:28.070Z,26.00
2019-01-13T11:23:28.077Z,27.30
2019-01-13T11:24:28.079Z,29.30
2019-01-13T11:25:28.038Z,29.70
2019-01-13T11:26:28.027Z,25.70
2019-01-13T11:27:28.015Z,31.60
2019-01-13T11:28:28.030Z,29.80
2019-01-13T11:29:32.706Z,27.80
2019-01-13T11:30:28.056Z,30.70
2019-01-13T11:31:27.975Z,30.00
2019-01-13T11:32:27.970Z,26.90
2019-01-13T11:33:27.973Z,26.60
2019-01-13T11:34:27.942Z,28.10
2019-01-13T11:35:27.933Z,26.40
2019-01-13T11:36:27.927Z,29.70
2019-01-13T11:37:27.908Z,29.00
2019-01-13T11:38:27.926Z,26.70
2019-01-13T11:39:27.886Z,31.60
2019-01-13T11:40:27.884Z,27.10
2019-01-13T11:41:28.143Z,27.70
2019-01-13T11:42:28.007Z,26.10
2019-01-13T11:43:28.001Z,22.80
2019-01-13T11:44:27.945Z,24.40
2019-01-13T11:45:27.896Z,26.60
2019-01-13T11:46:27.829Z,26.40
2019-01-13T11:47:27.804Z,24.80
2019-01-13T11:48:27.838Z,21.00
2019-01-13T11:49:27.782Z,24.30
2019-01-13T11:50:27.790Z,24.90
2019-01-13T11:51:27.792Z,22.90
2019-01-13T11:52:27.750Z,23.10
2019-01-13T11:53:27.762Z,21.20
2019-01-13T11:54:27.746Z,21.40
2019-01-13T11:55:27.718Z,18.90
2019-01-13T11:56:27.739Z,17.90
2019-01-13T11:57:27.696Z,20.80
2019-01-13T11:58:27.687Z,20.10
2019-01-13T11:59:27.713Z,20.50
2019-01-13T12:00:37.606Z,18.40
2019-01-13T12:01:36.293Z,21.70
2019-01-13T12:02:35.336Z,18.10
2019-01-13T12:03:35.817Z,23.00
2019-01-13T12:04:27.682Z,15.70
2019-01-13T12:05:27.611Z,17.60
2019-01-13T12:06:27.610Z,18.50
2019-01-13T12:07:28.938Z,16.70
2019-01-13T12:08:27.597Z,15.90
2019-01-13T12:09:27.610Z,17.00
2019-01-13T12:10:27.558Z,13.90
2019-01-13T12:11:27.554Z,16.40
2019-01-13T12:12:27.555Z,15.70
2019-01-13T12:13:27.544Z,14.40
2019-01-13T12:14:27.515Z,14.90
2019-01-13T12:15:27.551Z,15.50
2019-01-13T12:16:35.168Z,16.00
2019-01-13T12:17:27.507Z,14.80
2019-01-13T12:18:40.540Z,16.10
2019-01-13T12:19:34.669Z,16.60
2019-01-13T12:20:34.572Z,14.30
2019-01-13T12:21:34.620Z,15.40
2019-01-13T12:22:35.056Z,14.70
2019-01-13T12:23:36.047Z,15.00
2019-01-13T12:24:35.590Z,14.60
2019-01-13T12:25:37.208Z,16.50
2019-01-13T12:26:35.038Z,13.10
2019-01-13T12:27:34.975Z,12.20
2019-01-13T12:28:34.916Z,11.60
2019-01-13T12:29:34.920Z,11.50
2019-01-13T12:30:34.415Z,10.60
2019-01-13T12:31:34.381Z,12.90
2019-01-13T12:32:35.775Z,10.60
2019-01-13T12:33:34.939Z,12.80
2019-01-13T12:34:27.307Z,10.50
2019-01-13T12:35:27.312Z,12.00
2019-01-13T12:36:27.283Z,12.50
2019-01-13T12:37:27.304Z,9.60
2019-01-13T12:38:27.260Z,9.60
2019-01-13T12:39:28.346Z,8.70
2019-01-13T12:40:27.255Z,9.10
2019-01-13T12:41:27.245Z,9.00
2019-01-13T12:42:27.479Z,8.50
2019-01-13T12:43:27.206Z,9.20
2019-01-13T12:44:27.220Z,8.30
2019-01-13T12:45:27.183Z,8.80
2019-01-13T12:46:27.191Z,8.80
2019-01-13T12:47:27.174Z,10.50
2019-01-13T12:48:27.157Z,8.50
2019-01-13T12:49:27.160Z,9.30
2019-01-13T12:50:27.133Z,9.70
2019-01-13T12:51:27.140Z,9.20
2019-01-13T12:52:27.119Z,8.00
2019-01-13T12:53:27.102Z,7.40
2019-01-13T12:54:27.084Z,7.20
2019-01-13T12:55:27.075Z,7.00
2019-01-13T12:56:27.110Z,8.80
2019-01-13T12:57:27.051Z,9.40